Řízení letového provozu České republiky
Letiste: LKPR Aktualizace: 22.09.2019 10:30:28  UTC
 METAR LKPR 22.09. 10:30 ...
METAR LKPR 221030Z 10007KT 060V130 CAVOK 17/06 Q1015 NOSIG RMK REG QNH 1013=
 TAF LKPR 22.09. 05:00 ...
TAF LKPR 220500Z 2206/2312 12006KT CAVOK      BECMG 2302/2304 VRB02KT      BECMG 2306/2308 07004KT=